Time;durP1;ratioP1;P1;durP2;ratioP2;P2;SDS_P1;SDS_P2;PMS_P1;PMS_P2;Temp;Humidity;BMP_temperature;BMP_pressure;BME280_temperature;BME280_humidity;BME280_pressure;Samples;Min_cycle;Max_cycle;Signal;HPM_P1;HPM_P2
2021/11/07 00:03:10;;;;;;;11.23;8.13;;;;;;;21.10;53.45;100846.28;5004753;28;20049;-75
2021/11/07 00:05:50;;;;;;;10.30;8.18;;;;;;;21.10;53.18;100857.03;5010584;28;20038;-76
2021/11/07 00:08:30;;;;;;;9.52;8.43;;;;;;;21.08;53.32;100842.81;5009202;28;20418;-77
2021/11/07 00:11:01;;;;;;;10.15;7.85;;;;;;;21.07;53.20;100850.03;5013633;28;20502;-76
2021/11/07 00:13:28;;;;;;;10.98;8.63;;;;;;;21.06;53.42;100840.25;4997140;28;20443;-75
2021/11/07 00:15:59;;;;;;;10.43;8.15;;;;;;;21.06;53.15;100842.06;5018787;28;20034;-75
2021/11/07 00:18:40;;;;;;;12.30;7.45;;;;;;;21.03;53.40;100834.22;4999504;28;20042;-75
2021/11/07 00:21:14;;;;;;;9.25;7.65;;;;;;;21.02;53.16;100835.13;5017984;28;20426;-74
2021/11/07 00:23:51;;;;;;;9.98;7.95;;;;;;;21.01;53.37;100803.84;5023582;28;20036;-77
2021/11/07 00:28:58;;;;;;;9.98;7.60;;;;;;;20.99;53.22;100773.56;5013736;28;20486;-75
2021/11/07 00:31:50;;;;;;;8.55;7.30;;;;;;;20.99;53.31;100768.19;5008576;28;20045;-75
2021/11/07 00:37:11;;;;;;;8.95;7.60;;;;;;;20.98;52.96;100755.72;5017873;28;20060;-74
2021/11/07 00:39:43;;;;;;;9.85;7.05;;;;;;;20.97;53.26;100752.16;5018480;28;20033;-76
2021/11/07 00:42:20;;;;;;;9.73;7.38;;;;;;;20.95;53.30;100743.34;5016918;28;20041;-75
2021/11/07 00:49:56;;;;;;;9.85;6.25;;;;;;;20.93;53.17;100745.25;5013837;28;20044;-77
2021/11/07 00:52:37;;;;;;;7.18;5.93;;;;;;;20.92;52.93;100734.59;5013900;28;20623;-75
2021/11/07 01:00:07;;;;;;;7.45;5.85;;;;;;;20.89;53.08;100716.88;5014548;28;20042;-74
2021/11/07 01:02:37;;;;;;;7.70;6.43;;;;;;;20.89;53.19;100705.25;5036009;28;20052;-77
2021/11/07 01:05:16;;;;;;;8.05;6.80;;;;;;;20.89;53.43;100710.63;4995510;28;20049;-75
2021/11/07 01:07:43;;;;;;;8.32;6.70;;;;;;;20.88;53.19;100704.41;4977277;28;20046;-75
2021/11/07 01:10:10;;;;;;;8.93;6.68;;;;;;;20.88;53.06;100708.91;4982175;28;20046;-75
2021/11/07 01:12:37;;;;;;;7.90;6.03;;;;;;;20.86;52.92;100709.00;4990516;28;20415;-78
2021/11/07 01:15:04;;;;;;;9.35;6.72;;;;;;;20.84;53.24;100694.78;5020840;28;20461;-75
2021/11/07 01:17:31;;;;;;;7.22;6.13;;;;;;;20.85;53.17;100690.28;5017126;28;20099;-76
2021/11/07 01:19:58;;;;;;;7.75;5.97;;;;;;;20.83;53.08;100685.00;5003129;28;20446;-74
2021/11/07 01:22:39;;;;;;;6.88;5.95;;;;;;;20.82;53.24;100672.56;5010538;28;20041;-75
2021/11/07 01:25:06;;;;;;;9.30;5.47;;;;;;;20.81;52.95;100670.84;5006917;28;20054;-75
2021/11/07 01:27:39;;;;;;;6.65;5.63;;;;;;;20.80;52.72;100656.53;5008828;28;20053;-77
2021/11/07 01:30:14;;;;;;;7.47;5.80;;;;;;;20.79;52.93;100651.28;5025144;28;20498;-75
2021/11/07 01:32:46;;;;;;;8.52;6.03;;;;;;;20.79;52.93;100651.28;4988435;28;20111;-78
2021/11/07 01:37:55;;;;;;;6.15;4.90;;;;;;;20.78;53.07;100647.72;4991280;28;20524;-75
2021/11/07 01:40:26;;;;;;;6.43;5.60;;;;;;;20.77;52.93;100642.47;4998239;28;20136;-77
2021/11/07 01:42:56;;;;;;;5.45;4.95;;;;;;;20.76;52.81;100627.28;4983138;28;20049;-75
2021/11/07 01:45:30;;;;;;;6.00;5.25;;;;;;;20.77;52.74;100620.97;5011874;28;20045;-74
2021/11/07 01:48:07;;;;;;;5.80;5.00;;;;;;;20.76;52.79;100629.97;5013681;28;20112;-74
2021/11/07 01:50:40;;;;;;;7.82;5.30;;;;;;;20.75;52.70;100629.09;5015025;28;20088;-76
2021/11/07 01:55:59;;;;;;;5.85;4.75;;;;;;;20.75;52.74;100610.31;5014372;28;20454;-76
2021/11/07 01:58:27;;;;;;;6.00;5.13;;;;;;;20.75;52.97;100609.47;4997251;28;20049;-76
2021/11/07 02:00:54;;;;;;;5.55;4.80;;;;;;;20.74;52.95;100595.16;5012053;28;20042;-77
2021/11/07 02:03:22;;;;;;;5.82;4.72;;;;;;;20.74;52.89;100587.13;5001767;28;20042;-74
2021/11/07 02:05:49;;;;;;;5.47;4.68;;;;;;;20.75;52.88;100574.56;5017189;28;20030;-75
2021/11/07 02:08:18;;;;;;;6.28;4.78;;;;;;;20.74;52.89;100568.31;5002653;28;20037;-75
2021/11/07 02:10:46;;;;;;;6.90;5.40;;;;;;;20.74;53.05;100579.06;4996358;28;20056;-75
2021/11/07 02:13:12;;;;;;;6.15;4.93;;;;;;;20.73;52.97;100571.13;5004022;28;20045;-77
2021/11/07 02:15:39;;;;;;;6.30;4.00;;;;;;;20.75;53.20;100563.81;5003978;28;20498;-74
2021/11/07 02:18:06;;;;;;;6.05;4.72;;;;;;;20.74;53.19;100544.16;5014408;28;20604;-75
2021/11/07 02:20:40;;;;;;;6.32;5.15;;;;;;;20.74;53.21;100546.84;4997437;28;20054;-76
2021/11/07 02:23:12;;;;;;;6.78;4.50;;;;;;;20.73;52.93;100539.75;5017489;28;20100;-77
2021/11/07 02:25:40;;;;;;;5.90;5.15;;;;;;;20.73;53.19;100539.75;5000652;28;20133;-77
2021/11/07 02:28:08;;;;;;;6.22;4.78;;;;;;;20.73;52.98;100530.84;4991884;28;20081;-76
2021/11/07 02:30:37;;;;;;;6.05;4.68;;;;;;;20.72;52.96;100529.97;5004168;28;20044;-76
2021/11/07 02:33:04;;;;;;;4.40;3.88;;;;;;;20.72;53.29;100521.94;4972024;28;20091;-76
2021/11/07 02:35:31;;;;;;;5.53;4.07;;;;;;;20.72;53.14;100515.69;4974042;28;20127;-76
2021/11/07 02:37:58;;;;;;;5.53;4.60;;;;;;;20.71;53.07;100517.53;4981196;28;20455;-76
2021/11/07 02:40:26;;;;;;;6.18;4.60;;;;;;;20.70;53.15;100502.38;5007079;28;20564;-76
2021/11/07 02:42:53;;;;;;;5.55;4.50;;;;;;;20.69;53.35;100499.81;4987571;28;20064;-76
2021/11/07 02:45:21;;;;;;;6.95;5.22;;;;;;;20.69;53.03;100481.00;5005909;28;20057;-76
2021/11/07 02:47:49;;;;;;;5.60;4.15;;;;;;;20.69;53.22;100487.22;5009051;28;20507;-76
2021/11/07 02:50:18;;;;;;;6.00;4.75;;;;;;;20.69;53.42;100483.69;5007601;28;20096;-76
2021/11/07 02:52:45;;;;;;;6.65;4.70;;;;;;;20.68;53.32;100472.09;4975690;28;20096;-76
2021/11/07 02:55:12;;;;;;;5.22;4.50;;;;;;;20.68;53.39;100456.00;5010944;28;20046;-76
2021/11/07 02:57:39;;;;;;;7.63;4.88;;;;;;;20.67;53.11;100451.56;4992712;28;20037;-76
2021/11/07 03:00:08;;;;;;;6.57;4.40;;;;;;;20.67;53.40;100450.69;5008064;28;20042;-76
2021/11/07 03:02:36;;;;;;;4.85;4.03;;;;;;;20.66;53.35;100436.41;5009820;28;20095;-76
2021/11/07 03:05:06;;;;;;;5.18;4.40;;;;;;;20.66;53.55;100441.78;5007845;28;20590;-76
2021/11/07 03:07:33;;;;;;;5.65;4.47;;;;;;;20.66;53.51;100424.81;4992832;28;20423;-76
2021/11/07 03:09:59;;;;;;;6.35;4.60;;;;;;;20.64;53.42;100432.97;4993358;28;20387;-76
2021/11/07 03:12:26;;;;;;;7.13;4.85;;;;;;;20.65;53.49;100425.78;5009603;28;20099;-75
2021/11/07 03:14:53;;;;;;;5.30;4.72;;;;;;;20.64;53.55;100421.38;5008930;28;20522;-76
2021/11/07 03:17:23;;;;;;;5.30;4.40;;;;;;;20.64;53.33;100413.31;5008923;28;20042;-76
2021/11/07 03:19:50;;;;;;;4.50;3.83;;;;;;;20.63;53.43;100425.88;4991978;28;20046;-76
2021/11/07 03:22:19;;;;;;;5.85;3.97;;;;;;;20.62;53.40;100408.06;4980518;28;20092;-76
2021/11/07 03:24:52;;;;;;;4.75;3.55;;;;;;;20.63;53.37;100408.94;4992601;28;20045;-74
2021/11/07 03:27:26;;;;;;;4.90;4.25;;;;;;;20.61;53.43;100400.97;4997794;28;20042;-78
2021/11/07 03:30:00;;;;;;;5.60;4.18;;;;;;;20.61;53.45;100386.69;5007191;28;20038;-76
2021/11/07 03:35:04;;;;;;;5.85;4.47;;;;;;;20.59;53.49;100381.41;5012676;28;20073;-72
2021/11/07 03:37:36;;;;;;;5.57;4.20;;;;;;;20.60;53.60;100371.53;4995408;28;20037;-72
2021/11/07 03:40:08;;;;;;;4.50;3.92;;;;;;;20.58;53.52;100355.53;4993188;28;20502;-72
2021/11/07 03:42:34;;;;;;;4.78;3.92;;;;;;;20.57;53.50;100361.88;4996399;28;20045;-72
2021/11/07 03:45:02;;;;;;;5.38;4.30;;;;;;;20.58;53.73;100349.31;4977734;28;20038;-72
2021/11/07 03:47:29;;;;;;;4.97;3.97;;;;;;;20.57;53.61;100352.97;4991688;28;20092;-71
2021/11/07 03:49:57;;;;;;;5.85;3.95;;;;;;;20.55;53.77;100345.00;4993121;28;20092;-71
2021/11/07 03:52:23;;;;;;;4.80;4.13;;;;;;;20.56;53.64;100343.19;4984922;28;20042;-71
2021/11/07 03:54:50;;;;;;;4.22;3.45;;;;;;;20.55;53.51;100333.41;5008942;28;20034;-71
2021/11/07 03:57:17;;;;;;;4.35;3.95;;;;;;;20.55;53.52;100336.97;4991086;28;20088;-72
2021/11/07 03:59:45;;;;;;;5.78;4.05;;;;;;;20.54;53.63;100351.34;4992691;28;20030;-71
2021/11/07 04:02:12;;;;;;;6.82;4.65;;;;;;;20.55;53.78;100338.78;4999253;28;20041;-72
2021/11/07 04:04:39;;;;;;;4.85;4.05;;;;;;;20.53;53.71;100330.84;4977928;28;20041;-72
2021/11/07 04:07:07;;;;;;;6.43;4.50;;;;;;;20.52;53.54;100330.00;4996487;28;20503;-71
2021/11/07 04:09:34;;;;;;;4.95;3.72;;;;;;;20.53;53.76;100333.53;4983938;28;20033;-71
2021/11/07 04:12:01;;;;;;;5.38;4.03;;;;;;;20.52;53.60;100329.13;4996339;28;20561;-72
2021/11/07 04:14:33;;;;;;;5.68;4.03;;;;;;;20.51;53.80;100325.59;4978930;28;20099;-72
2021/11/07 04:17:05;;;;;;;5.13;4.15;;;;;;;20.53;53.64;100317.44;4993273;28;20041;-72
2021/11/07 04:19:32;;;;;;;5.68;4.00;;;;;;;20.50;53.80;100312.25;5016579;28;20037;-71
2021/11/07 04:22:03;;;;;;;6.18;4.35;;;;;;;20.50;53.63;100307.72;4977729;28;20038;-71
2021/11/07 04:24:31;;;;;;;5.22;4.13;;;;;;;20.51;53.79;100305.91;4979859;28;20050;-71
2021/11/07 04:26:58;;;;;;;6.95;4.00;;;;;;;20.50;53.77;100305.06;4995342;28;20042;-71
2021/11/07 04:29:26;;;;;;;4.18;3.78;;;;;;;20.50;53.79;100293.47;4993789;28;20045;-71
2021/11/07 04:31:54;;;;;;;8.27;4.07;;;;;;;20.49;53.67;100287.22;5011722;28;20049;-71
2021/11/07 04:34:22;;;;;;;5.70;4.00;;;;;;;20.49;53.79;100294.44;4993072;28;20045;-71
2021/11/07 04:36:49;;;;;;;4.45;3.90;;;;;;;20.49;53.59;100297.13;4959037;28;20109;-72
2021/11/07 04:39:16;;;;;;;4.65;3.80;;;;;;;20.48;53.77;100285.53;4996174;28;20494;-72
2021/11/07 04:41:42;;;;;;;6.28;4.18;;;;;;;20.49;53.52;100278.31;4998351;28;20048;-71
2021/11/07 04:44:09;;;;;;;6.75;3.97;;;;;;;20.48;53.55;100266.72;4983468;28;20041;-71
2021/11/07 04:46:36;;;;;;;5.22;4.43;;;;;;;20.49;53.52;100275.66;5008701;28;20038;-71
2021/11/07 04:49:03;;;;;;;5.15;3.50;;;;;;;20.48;53.73;100261.38;4958091;28;20052;-71
2021/11/07 04:51:30;;;;;;;5.00;3.83;;;;;;;20.49;53.62;100278.31;4975164;28;20503;-71
2021/11/07 04:54:01;;;;;;;5.82;4.28;;;;;;;20.49;53.53;100283.69;4996201;28;20041;-71
2021/11/07 04:56:27;;;;;;;5.50;4.22;;;;;;;20.48;53.60;100261.38;4988818;28;20381;-71
2021/11/07 04:58:54;;;;;;;3.90;3.50;;;;;;;20.49;53.72;100259.53;5013677;28;20038;-70
2021/11/07 05:01:21;;;;;;;4.20;3.10;;;;;;;20.48;53.65;100255.16;4961423;28;20042;-71
2021/11/07 05:03:48;;;;;;;5.68;3.38;;;;;;;20.48;53.77;100247.09;4993267;28;20042;-71
2021/11/07 05:06:15;;;;;;;4.68;3.58;;;;;;;20.47;53.77;100243.56;4993696;28;20037;-72
2021/11/07 05:08:41;;;;;;;5.63;3.67;;;;;;;20.47;53.65;100240.88;4990718;28;20049;-71
2021/11/07 05:11:08;;;;;;;4.72;3.70;;;;;;;20.47;53.63;100242.69;4996967;28;20045;-71
2021/11/07 05:13:35;;;;;;;4.10;3.33;;;;;;;20.47;53.54;100234.66;4996358;28;20045;-71
2021/11/07 05:16:02;;;;;;;4.95;3.60;;;;;;;20.47;53.60;100226.59;4983767;28;20037;-70
2021/11/07 05:18:28;;;;;;;4.88;3.65;;;;;;;20.46;53.51;100233.78;4998886;28;20041;-70
2021/11/07 05:20:55;;;;;;;4.88;3.60;;;;;;;20.45;53.51;100234.75;4978762;28;20044;-71
2021/11/07 05:23:22;;;;;;;4.45;3.83;;;;;;;20.45;53.44;100241.94;4982455;28;20045;-72
2021/11/07 05:25:49;;;;;;;5.70;3.70;;;;;;;20.45;53.30;100248.16;4976921;28;20647;-71
2021/11/07 05:28:16;;;;;;;5.40;3.15;;;;;;;20.45;53.39;100229.38;4991033;28;20034;-71
2021/11/07 05:30:42;;;;;;;4.57;3.40;;;;;;;20.45;53.16;100225.84;4979608;28;20037;-71
2021/11/07 05:33:10;;;;;;;5.25;3.45;;;;;;;20.44;53.03;100208.88;4959277;28;20053;-72
2021/11/07 05:35:37;;;;;;;4.07;3.42;;;;;;;20.44;52.92;100219.63;4978372;28;20045;-70
2021/11/07 05:38:03;;;;;;;5.15;3.42;;;;;;;20.45;52.82;100204.38;4979685;28;20033;-70
2021/11/07 05:40:30;;;;;;;4.40;3.58;;;;;;;20.45;53.16;100207.06;4991292;28;20049;-71
2021/11/07 05:42:58;;;;;;;3.72;3.20;;;;;;;20.45;53.14;100209.75;4991938;28;20038;-70
2021/11/07 05:45:24;;;;;;;5.40;3.17;;;;;;;20.46;52.82;100214.16;5003890;28;20588;-71
2021/11/07 05:47:51;;;;;;;4.55;3.30;;;;;;;20.45;52.96;100209.75;4974831;28;20073;-71
2021/11/07 05:50:19;;;;;;;4.10;3.10;;;;;;;20.46;52.94;100200.72;5012255;28;20565;-70
2021/11/07 05:52:46;;;;;;;4.68;3.10;;;;;;;20.46;53.02;100203.41;4994996;28;20038;-71
2021/11/07 05:55:13;;;;;;;4.03;3.42;;;;;;;20.46;52.98;100195.34;4986084;28;20045;-71
2021/11/07 05:57:41;;;;;;;3.28;2.97;;;;;;;20.47;53.00;100191.72;4983751;28;20494;-70
2021/11/07 06:00:09;;;;;;;3.65;3.20;;;;;;;20.47;52.93;100194.41;5007931;28;20042;-71
2021/11/07 06:02:36;;;;;;;4.35;2.75;;;;;;;20.47;52.87;100195.25;4998035;28;20403;-71
2021/11/07 06:05:03;;;;;;;3.55;3.17;;;;;;;20.47;52.83;100189.03;4995584;28;20045;-71
2021/11/07 06:07:30;;;;;;;4.05;2.75;;;;;;;20.47;52.74;100178.28;5008439;28;20044;-70
2021/11/07 06:09:56;;;;;;;5.80;2.92;;;;;;;20.47;52.63;100189.88;5003262;28;20746;-71
2021/11/07 06:12:23;;;;;;;5.60;3.55;;;;;;;20.48;52.77;100186.22;5006163;28;20042;-71
2021/11/07 06:14:50;;;;;;;3.65;3.20;;;;;;;20.48;52.64;100202.34;4975777;28;20446;-71
2021/11/07 06:17:17;;;;;;;7.18;3.80;;;;;;;20.48;52.53;100185.38;4975715;28;20034;-71
2021/11/07 06:19:44;;;;;;;5.20;3.20;;;;;;;20.49;52.70;100181.72;5011861;28;20042;-71
2021/11/07 06:22:13;;;;;;;3.08;2.72;;;;;;;20.50;52.74;100178.06;4991468;28;20049;-71
2021/11/07 06:24:40;;;;;;;3.85;3.17;;;;;;;20.50;52.67;100183.44;4975524;28;20503;-71
2021/11/07 06:27:07;;;;;;;3.58;3.03;;;;;;;20.50;52.79;100181.59;5015107;28;20037;-72
2021/11/07 06:29:34;;;;;;;4.22;3.20;;;;;;;20.51;52.55;100171.72;5012653;28;20096;-71
2021/11/07 06:32:01;;;;;;;3.78;2.63;;;;;;;20.53;52.75;100167.13;4993480;28;20117;-71
2021/11/07 06:34:28;;;;;;;5.53;3.05;;;;;;;20.54;52.79;100182.28;4980930;28;20107;-71
2021/11/07 06:36:56;;;;;;;5.28;3.08;;;;;;;20.54;52.75;100173.38;5002691;28;20045;-71
2021/11/07 06:39:23;;;;;;;4.03;2.97;;;;;;;20.54;52.87;100184.09;5019669;28;20087;-71
2021/11/07 06:41:50;;;;;;;6.53;3.38;;;;;;;20.56;52.82;100185.69;5013599;28;20653;-71
2021/11/07 06:44:16;;;;;;;4.32;3.25;;;;;;;20.55;52.72;100181.31;5015144;28;20462;-71
2021/11/07 06:46:43;;;;;;;4.40;2.95;;;;;;;20.55;52.72;100175.94;4980440;28;20045;-71
2021/11/07 06:49:12;;;;;;;5.68;3.08;;;;;;;20.57;52.62;100178.50;4996084;28;20046;-71
2021/11/07 06:51:42;;;;;;;3.70;2.60;;;;;;;20.57;52.54;100189.25;4996330;28;20053;-71
2021/11/07 06:54:12;;;;;;;3.20;2.55;;;;;;;20.58;52.44;100169.47;4993776;28;20029;-70
2021/11/07 06:56:40;;;;;;;3.50;2.70;;;;;;;20.58;52.43;100173.03;4973661;28;20045;-72
2021/11/07 06:59:06;;;;;;;5.40;2.80;;;;;;;20.60;52.36;100180.97;4998908;28;20050;-71
2021/11/07 07:01:34;;;;;;;3.50;2.55;;;;;;;20.58;52.57;100175.72;5012537;28;20045;-72
2021/11/07 07:04:01;;;;;;;4.32;2.90;;;;;;;20.61;52.33;100172.84;4994133;28;20088;-72
2021/11/07 07:06:28;;;;;;;4.03;2.50;;;;;;;20.61;52.41;100170.16;4992341;28;20530;-72
2021/11/07 07:11:28;;;;;;;3.42;2.05;;;;;;;20.61;52.32;100167.47;4997774;28;20045;-72
2021/11/07 07:14:07;;;;;;;3.40;2.40;;;;;;;20.58;52.36;100167.66;5000383;28;20030;-71
2021/11/07 07:16:50;;;;;;;4.75;2.63;;;;;;;20.58;52.26;100156.91;4981440;28;20064;-72
2021/11/07 07:22:51;;;;;;;3.80;2.90;;;;;;;20.60;52.26;100157.69;4964207;28;20058;-71
2021/11/07 07:25:50;;;;;;;3.65;2.33;;;;;;;20.60;52.58;100140.72;4989218;28;20499;-72
2021/11/07 07:28:26;;;;;;;2.80;2.10;;;;;;;20.58;52.10;100145.34;4989951;28;20042;-74
2021/11/07 07:33:30;;;;;;;2.65;2.05;;;;;;;20.54;51.69;100158.13;4993847;28;20053;-74
2021/11/07 07:35:57;;;;;;;3.80;2.58;;;;;;;20.49;50.67;100155.75;4977249;28;20042;-71
2021/11/07 07:38:24;;;;;;;6.90;4.75;;;;;;;20.32;49.03;100155.16;4981911;28;20041;-74
2021/11/07 07:40:51;;;;;;;5.57;4.07;;;;;;;20.10;48.20;100162.00;4994011;28;20038;-76
2021/11/07 07:43:19;;;;;;;3.97;3.45;;;;;;;20.01;49.40;100146.56;4963139;28;20049;-71
2021/11/07 07:45:46;;;;;;;3.40;2.83;;;;;;;20.02;51.06;100150.94;4991996;28;20573;-72
2021/11/07 07:48:13;;;;;;;4.43;2.95;;;;;;;20.04;51.70;100154.38;4988564;28;20029;-73
2021/11/07 07:50:41;;;;;;;4.45;3.00;;;;;;;20.08;51.77;100144.28;4988324;28;20042;-71
2021/11/07 07:53:08;;;;;;;15.63;8.57;;;;;;;20.17;52.20;100144.50;4995206;28;20041;-73
2021/11/07 07:55:36;;;;;;;19.48;11.25;;;;;;;20.33;53.78;100130.06;4984908;28;20049;-71
2021/11/07 07:58:02;;;;;;;18.38;11.77;;;;;;;20.49;55.12;100125.38;4992706;28;20062;-71
2021/11/07 08:00:29;;;;;;;18.10;11.77;;;;;;;20.72;55.09;100116.56;4996756;28;20069;-71
2021/11/07 08:02:56;;;;;;;11.35;7.13;;;;;;;20.96;54.69;100121.16;5019702;28;20120;-71
2021/11/07 08:05:23;;;;;;;9.85;6.45;;;;;;;21.23;54.54;100129.03;5020043;28;20048;-73
2021/11/07 08:07:50;;;;;;;6.70;5.30;;;;;;;21.48;54.49;100123.59;4973874;28;20396;-74
2021/11/07 08:10:17;;;;;;;8.63;5.38;;;;;;;21.75;54.05;100130.56;4978209;28;20080;-76
2021/11/07 08:12:44;;;;;;;6.35;5.03;;;;;;;22.02;54.10;100119.53;4984078;28;20064;-71
2021/11/07 08:15:13;;;;;;;5.50;4.30;;;;;;;22.29;53.38;100120.16;4977493;28;20037;-74
2021/11/07 08:17:40;;;;;;;5.57;4.50;;;;;;;22.55;53.29;100134.25;4996343;28;20037;-75
2021/11/07 08:20:08;;;;;;;4.97;4.05;;;;;;;22.79;52.96;100120.69;4982022;28;20046;-75
2021/11/07 08:22:37;;;;;;;4.82;4.00;;;;;;;23.01;52.86;100126.06;4982144;28;20054;-73
2021/11/07 08:25:10;;;;;;;3.95;3.08;;;;;;;23.24;52.66;100129.59;4980702;28;20069;-74
2021/11/07 08:27:39;;;;;;;;;;;;;;;23.44;52.14;100117.19;4968763;28;20041;-70
2021/11/07 08:30:07;;;;;;;4.43;3.20;;;;;;;23.61;52.28;100117.66;4993464;28;19921;-72
2021/11/07 08:32:33;;;;;;;6.03;3.90;;;;;;;23.76;52.43;100119.94;4972711;28;20499;-73
2021/11/07 08:35:00;;;;;;;5.10;3.65;;;;;;;23.92;52.05;100110.53;4985064;28;20054;-72
2021/11/07 08:37:42;;;;;;;4.22;3.13;;;;;;;24.05;51.89;100106.69;5006176;28;20034;-72
2021/11/07 08:40:11;;;;;;;4.57;3.10;;;;;;;24.21;52.25;100097.25;4980492;28;20105;-76
2021/11/07 08:42:43;;;;;;;7.18;3.58;;;;;;;24.31;52.11;100087.38;4983428;28;20046;-72
2021/11/07 09:02:04;;;;;;;3.50;2.70;;;;;;;25.25;51.37;100083.56;4981768;28;20046;-72
2021/11/07 09:07:20;;;;;;;3.28;2.67;;;;;;;25.32;50.25;100105.47;4980396;28;20122;-73
2021/11/07 09:09:48;;;;;;;4.18;2.80;;;;;;;25.31;49.46;100093.81;5013445;28;20056;-73
2021/11/07 09:12:15;;;;;;;3.10;2.80;;;;;;;25.33;49.92;100085.56;4994072;28;20100;-72
2021/11/07 09:14:42;;;;;;;3.60;2.50;;;;;;;25.34;50.03;100092.66;5008147;28;20572;-72
2021/11/07 09:17:12;;;;;;;2.63;2.10;;;;;;;25.33;50.01;100090.97;4967634;28;21686;-72
2021/11/07 09:19:40;;;;;;;3.35;2.90;;;;;;;25.35;50.09;100091.66;4970299;28;20042;-72
2021/11/07 09:22:15;;;;;;;3.35;2.55;;;;;;;25.36;50.48;100085.25;4991124;28;20260;-72
2021/11/07 09:24:54;;;;;;;3.13;2.83;;;;;;;25.37;50.02;100089.66;5007154;28;20041;-72
2021/11/07 09:27:28;;;;;;;2.72;2.45;;;;;;;25.37;49.65;100093.22;4998448;28;20050;-72
2021/11/07 09:35:25;;;;;;;3.47;3.10;;;;;;;25.33;48.75;100099.94;5019735;28;20042;-72
2021/11/07 09:38:45;;;;;;;3.28;2.53;;;;;;;25.34;49.06;100095.38;4981120;28;20045;-71
2021/11/07 09:40:47;;;;;;;3.17;2.13;;;;;;;25.34;49.64;100090.81;4992543;28;20053;-71
2021/11/07 09:43:22;;;;;;;3.55;3.10;;;;;;;25.35;49.56;100092.53;4978592;28;20058;-72
2021/11/07 09:48:26;;;;;;;2.65;2.45;;;;;;;25.35;49.30;100092.53;5043827;28;20610;-76
2021/11/07 09:50:55;;;;;;;3.05;2.72;;;;;;;25.34;49.36;100103.47;5043867;28;20098;-74
2021/11/07 09:53:22;;;;;;;4.05;2.97;;;;;;;25.33;49.21;100093.66;5033461;28;20378;-75
2021/11/07 09:55:51;;;;;;;3.00;2.70;;;;;;;25.30;49.43;100085.81;5055050;28;20063;-76
2021/11/07 09:58:18;;;;;;;3.00;2.70;;;;;;;25.29;49.29;100089.50;5047523;28;20595;-76
2021/11/07 10:00:49;;;;;;;2.60;2.40;;;;;;;25.27;49.10;100078.84;5070682;28;20036;-75
2021/11/07 10:03:18;;;;;;;2.92;2.38;;;;;;;25.25;49.02;100084.41;5049692;28;20633;-77
2021/11/07 10:05:48;;;;;;;2.80;2.47;;;;;;;25.26;49.65;100079.84;5069193;28;20048;-75
2021/11/07 10:08:16;;;;;;;3.28;2.60;;;;;;;25.26;49.83;100077.16;5049489;28;20056;-76
2021/11/07 10:10:53;;;;;;;3.60;2.38;;;;;;;25.26;49.84;100075.28;5053431;28;20056;-76
2021/11/07 10:13:26;;;;;;;4.05;2.53;;;;;;;25.24;49.88;100077.28;5061198;28;20044;-76
2021/11/07 10:16:09;;;;;;;3.10;2.38;;;;;;;25.13;46.80;100069.28;5056928;28;20060;-76
2021/11/07 10:18:47;;;;;;;3.55;3.25;;;;;;;25.09;47.00;100058.91;5046700;28;20074;-76
2021/11/07 10:21:23;;;;;;;3.38;2.70;;;;;;;25.05;47.04;100076.38;5043548;28;20289;-76
2021/11/07 10:24:14;;;;;;;5.45;2.50;;;;;;;25.00;47.61;100063.25;5048207;28;20076;-76
2021/11/07 10:26:44;;;;;;;3.10;2.47;;;;;;;24.93;47.87;100068.34;5063190;28;20078;-77
2021/11/07 10:29:35;;;;;;;2.40;2.05;;;;;;;24.91;48.12;100067.63;5066414;28;20060;-76
2021/11/07 10:32:14;;;;;;;3.72;2.30;;;;;;;24.90;48.82;100057.81;5067165;28;20378;-76
2021/11/07 10:35:09;;;;;;;2.90;2.55;;;;;;;24.90;49.26;100056.97;5049054;28;20107;-76
2021/11/07 10:38:00;;;;;;;2.13;1.83;;;;;;;24.90;49.55;100065.94;5064446;28;20132;-75
2021/11/07 10:40:39;;;;;;;2.75;2.00;;;;;;;24.89;49.14;100064.22;5059472;28;20056;-76
2021/11/07 10:54:11;;;;;;;4.50;2.35;;;;;;;24.79;48.61;100054.34;5061564;28;20574;-76
2021/11/07 10:56:38;;;;;;;2.58;2.17;;;;;;;24.77;48.56;100045.53;5060565;28;20390;-76
2021/11/07 10:59:15;;;;;;;3.78;2.20;;;;;;;24.75;48.79;100042.97;5064730;28;20398;-76
2021/11/07 11:01:44;;;;;;;4.45;2.65;;;;;;;24.62;47.10;100040.50;5047961;28;20044;-76
2021/11/07 11:04:11;;;;;;;3.45;2.38;;;;;;;24.57;47.08;100034.69;5043041;28;20044;-76
2021/11/07 11:06:39;;;;;;;3.15;2.22;;;;;;;24.55;46.87;100039.38;5065490;28;20447;-75
2021/11/07 11:09:18;;;;;;;3.25;2.00;;;;;;;24.52;47.46;100044.16;5064766;28;20036;-76
2021/11/07 11:11:48;;;;;;;3.08;2.38;;;;;;;24.50;47.52;100049.72;5037441;28;20071;-77
2021/11/07 11:14:30;;;;;;;3.35;2.22;;;;;;;24.48;48.22;100051.69;5064160;28;20048;-76
2021/11/07 11:17:23;;;;;;;4.22;2.40;;;;;;;24.47;48.32;100038.31;5045448;28;20432;-76
2021/11/07 11:27:32;;;;;;;19.95;10.45;;;;;;;24.38;47.79;100037.28;5065731;28;20106;-75
2021/11/07 11:35:21;;;;;;;59.75;34.28;;;;;;;24.15;45.54;100034.72;5050304;28;20047;-75
2021/11/07 11:43:09;;;;;;;57.47;31.67;;;;;;;24.01;46.13;100029.66;5068694;28;20044;-76
2021/11/07 11:45:39;;;;;;;54.10;30.13;;;;;;;23.95;45.89;100024.78;5066155;28;20122;-77
2021/11/07 11:48:24;;;;;;;53.65;28.73;;;;;;;23.92;46.10;100021.50;5038295;28;20091;-76
2021/11/07 11:56:19;;;;;;;44.95;26.40;;;;;;;23.91;47.34;100017.09;5064993;28;20413;-75
2021/11/07 12:01:50;;;;;;;41.03;23.50;;;;;;;23.92;47.74;100016.97;5055980;28;20058;-75
2021/11/07 12:04:26;;;;;;;42.47;23.70;;;;;;;23.93;47.66;100013.28;5050830;28;20040;-74
2021/11/07 12:07:09;;;;;;;37.97;22.13;;;;;;;23.94;47.98;100006.03;5046528;28;20048;-75
2021/11/07 12:10:00;;;;;;;33.47;21.33;;;;;;;23.94;47.85;100000.66;5059946;28;21580;-76
2021/11/07 12:12:49;;;;;;;29.77;19.25;;;;;;;23.93;47.46;100007.03;5034347;28;20201;-77
2021/11/07 12:18:00;;;;;;;34.40;18.27;;;;;;;23.97;48.28;100003.09;5060948;28;20071;-75
2021/11/07 12:20:30;;;;;;;36.28;19.42;;;;;;;23.93;47.48;100007.03;5058455;28;20430;-75
2021/11/07 12:23:26;;;;;;;30.95;17.55;;;;;;;23.88;45.97;100020.94;5049494;28;20037;-74
2021/11/07 12:25:59;;;;;;;25.38;15.32;;;;;;;23.85;45.89;100097.56;5065826;28;20032;-73
2021/11/07 12:28:46;;;;;;;25.00;14.93;;;;;;;23.85;46.49;100096.72;5065724;28;20102;-73
2021/11/07 12:31:12;;;;;;;22.15;12.27;;;;;;;23.82;46.83;100092.44;5068766;28;20060;-74
2021/11/07 12:33:58;;;;;;;22.50;12.68;;;;;;;23.81;46.83;100088.03;5048386;28;20517;-73
2021/11/07 12:40:33;;;;;;;20.83;11.88;;;;;;;23.80;47.02;100072.84;5065189;28;20058;-75
2021/11/07 12:42:20;;;;;;;21.02;14.48;;;;;;;23.77;47.02;100091.97;5055351;28;20506;-73
2021/11/07 12:44:50;;;;;;;22.40;13.15;;;;;;;23.77;47.24;100093.81;5063176;28;20037;-74
2021/11/07 12:47:22;;;;;;;21.25;12.23;;;;;;;23.76;47.20;100092.09;5061501;28;20047;-74
2021/11/07 12:50:16;;;;;;;22.27;11.30;;;;;;;23.73;47.12;100082.44;5055178;28;20464;-73
2021/11/07 12:52:52;;;;;;;19.52;11.45;;;;;;;23.74;47.35;100099.47;5057639;28;20052;-73
2021/11/07 12:55:39;;;;;;;18.85;11.13;;;;;;;23.72;47.13;100101.44;5053289;28;20033;-74
2021/11/07 12:58:09;;;;;;;19.48;12.48;;;;;;;23.70;47.29;100106.09;5056173;28;20048;-74
2021/11/07 13:00:36;;;;;;;19.50;10.75;;;;;;;23.69;47.31;100104.38;5052728;28;20040;-73
2021/11/07 13:03:09;;;;;;;15.88;10.35;;;;;;;23.68;47.38;100114.31;5055487;28;20045;-75
2021/11/07 13:05:38;;;;;;;19.05;10.80;;;;;;;23.67;47.29;100122.53;5040043;28;20131;-74
2021/11/07 13:08:07;;;;;;;19.48;10.75;;;;;;;23.63;46.95;100104.88;5060846;28;20458;-73
2021/11/07 13:13:35;;;;;;;16.40;10.10;;;;;;;23.59;47.36;100080.00;5055482;28;20640;-73
2021/11/07 13:16:37;;;;;;;15.57;9.10;;;;;;;23.58;47.00;100081.84;5062042;28;20051;-73
2021/11/07 13:19:29;;;;;;;17.27;9.27;;;;;;;23.56;47.04;100080.28;5053350;28;20113;-75
2021/11/07 13:24:55;;;;;;;16.50;9.15;;;;;;;23.52;47.39;100076.94;5043477;28;20040;-73
2021/11/07 13:27:40;;;;;;;16.67;9.43;;;;;;;23.51;47.02;100090.56;5044148;28;20049;-73
2021/11/07 13:30:15;;;;;;;15.15;9.32;;;;;;;23.50;46.96;100097.81;5057481;28;20064;-74
2021/11/07 13:32:42;;;;;;;16.58;9.27;;;;;;;23.49;47.09;100095.25;5057548;28;20040;-74